sensor_id;sensor_type;location;lat;lon;timestamp;temperature;humidity
19363;DHT22;9817;50.80926400;5.16316200;2023-07-08T00:00:44;21.70;99.90
19363;DHT22;9817;50.80926400;5.16316200;2023-07-08T00:03:11;21.70;99.90
19363;DHT22;9817;50.80926400;5.16316200;2023-07-08T00:05:36;21.60;99.90
19363;DHT22;9817;50.80926400;5.16316200;2023-07-08T00:08:02;21.60;99.90
19363;DHT22;9817;50.80926400;5.16316200;2023-07-08T00:10:28;21.50;99.90
19363;DHT22;9817;50.80926400;5.16316200;2023-07-08T00:12:56;21.40;99.90
19363;DHT22;9817;50.80926400;5.16316200;2023-07-08T00:15:26;21.30;99.90
19363;DHT22;9817;50.80926400;5.16316200;2023-07-08T00:17:53;21.40;99.90
19363;DHT22;9817;50.80926400;5.16316200;2023-07-08T00:20:47;21.40;99.90
19363;DHT22;9817;50.80926400;5.16316200;2023-07-08T00:23:13;21.40;99.90
19363;DHT22;9817;50.80926400;5.16316200;2023-07-08T00:25:39;21.30;99.90
19363;DHT22;9817;50.80926400;5.16316200;2023-07-08T00:28:17;21.30;99.90
19363;DHT22;9817;50.80926400;5.16316200;2023-07-08T00:30:43;21.20;99.90
19363;DHT22;9817;50.80926400;5.16316200;2023-07-08T00:33:09;20.90;99.90
19363;DHT22;9817;50.80926400;5.16316200;2023-07-08T00:35:41;20.80;99.90
19363;DHT22;9817;50.80926400;5.16316200;2023-07-08T00:40:58;20.70;99.90
19363;DHT22;9817;50.80926400;5.16316200;2023-07-08T00:43:43;20.70;99.90
19363;DHT22;9817;50.80926400;5.16316200;2023-07-08T00:48:51;20.90;99.90
19363;DHT22;9817;50.80926400;5.16316200;2023-07-08T00:51:19;20.90;99.90
19363;DHT22;9817;50.80926400;5.16316200;2023-07-08T00:53:45;20.90;99.90
19363;DHT22;9817;50.80926400;5.16316200;2023-07-08T00:56:33;20.90;99.90
19363;DHT22;9817;50.80926400;5.16316200;2023-07-08T00:59:04;20.90;99.90
19363;DHT22;9817;50.80926400;5.16316200;2023-07-08T01:01:34;20.80;99.90
19363;DHT22;9817;50.80926400;5.16316200;2023-07-08T01:04:14;20.80;99.90
19363;DHT22;9817;50.80926400;5.16316200;2023-07-08T01:06:44;20.90;99.90
19363;DHT22;9817;50.80926400;5.16316200;2023-07-08T01:09:12;20.90;99.90
19363;DHT22;9817;50.80926400;5.16316200;2023-07-08T01:11:40;20.90;99.90
19363;DHT22;9817;50.80926400;5.16316200;2023-07-08T01:14:09;20.90;99.90
19363;DHT22;9817;50.80926400;5.16316200;2023-07-08T01:16:38;20.90;99.90
19363;DHT22;9817;50.80926400;5.16316200;2023-07-08T01:19:09;20.90;99.90
19363;DHT22;9817;50.80926400;5.16316200;2023-07-08T01:21:44;20.80;99.90
19363;DHT22;9817;50.80926400;5.16316200;2023-07-08T01:24:10;20.80;99.90
19363;DHT22;9817;50.80926400;5.16316200;2023-07-08T01:26:40;20.70;99.90
19363;DHT22;9817;50.80926400;5.16316200;2023-07-08T01:29:07;20.70;99.90
19363;DHT22;9817;50.80926400;5.16316200;2023-07-08T01:31:34;20.50;99.90
19363;DHT22;9817;50.80926400;5.16316200;2023-07-08T01:34:00;20.50;99.90
19363;DHT22;9817;50.80926400;5.16316200;2023-07-08T01:36:30;20.50;99.90
19363;DHT22;9817;50.80926400;5.16316200;2023-07-08T01:38:56;20.50;99.90
19363;DHT22;9817;50.80926400;5.16316200;2023-07-08T01:41:22;20.40;99.90
19363;DHT22;9817;50.80926400;5.16316200;2023-07-08T01:43:47;20.40;99.90
19363;DHT22;9817;50.80926400;5.16316200;2023-07-08T01:46:24;20.40;99.90
19363;DHT22;9817;50.80926400;5.16316200;2023-07-08T01:48:56;20.30;99.90
19363;DHT22;9817;50.80926400;5.16316200;2023-07-08T01:51:23;20.30;99.90
19363;DHT22;9817;50.80926400;5.16316200;2023-07-08T01:53:49;20.40;99.90
19363;DHT22;9817;50.80926400;5.16316200;2023-07-08T01:56:15;20.30;99.90
19363;DHT22;9817;50.80926400;5.16316200;2023-07-08T01:58:41;20.30;99.90
19363;DHT22;9817;50.80926400;5.16316200;2023-07-08T02:01:07;20.30;99.90
19363;DHT22;9817;50.80926400;5.16316200;2023-07-08T02:03:33;20.10;99.90
19363;DHT22;9817;50.80926400;5.16316200;2023-07-08T02:05:58;20.00;99.90
19363;DHT22;9817;50.80926400;5.16316200;2023-07-08T02:08:24;20.00;99.90
19363;DHT22;9817;50.80926400;5.16316200;2023-07-08T02:10:53;20.00;99.90
19363;DHT22;9817;50.80926400;5.16316200;2023-07-08T02:13:19;19.90;99.90
19363;DHT22;9817;50.80926400;5.16316200;2023-07-08T02:15:45;19.90;99.90
19363;DHT22;9817;50.80926400;5.16316200;2023-07-08T02:18:11;19.70;99.90
19363;DHT22;9817;50.80926400;5.16316200;2023-07-08T02:20:37;19.70;99.90
19363;DHT22;9817;50.80926400;5.16316200;2023-07-08T02:23:02;19.80;99.90
19363;DHT22;9817;50.80926400;5.16316200;2023-07-08T02:25:28;19.80;99.90
19363;DHT22;9817;50.80926400;5.16316200;2023-07-08T02:27:54;19.70;99.90
19363;DHT22;9817;50.80926400;5.16316200;2023-07-08T02:30:23;19.60;99.90
19363;DHT22;9817;50.80926400;5.16316200;2023-07-08T02:32:49;19.50;99.90
19363;DHT22;9817;50.80926400;5.16316200;2023-07-08T02:35:23;19.30;99.90
19363;DHT22;9817;50.80926400;5.16316200;2023-07-08T02:37:50;19.20;99.90
19363;DHT22;9817;50.80926400;5.16316200;2023-07-08T02:40:15;19.10;99.90
19363;DHT22;9817;50.80926400;5.16316200;2023-07-08T02:42:41;19.20;99.90
19363;DHT22;9817;50.80926400;5.16316200;2023-07-08T02:45:07;19.20;99.90
19363;DHT22;9817;50.80926400;5.16316200;2023-07-08T02:47:33;19.10;99.90
19363;DHT22;9817;50.80926400;5.16316200;2023-07-08T02:49:58;19.00;99.90
19363;DHT22;9817;50.80926400;5.16316200;2023-07-08T02:52:24;19.00;99.90
19363;DHT22;9817;50.80926400;5.16316200;2023-07-08T02:54:50;18.90;99.90
19363;DHT22;9817;50.80926400;5.16316200;2023-07-08T02:57:15;18.90;99.90
19363;DHT22;9817;50.80926400;5.16316200;2023-07-08T02:59:41;18.90;99.90
19363;DHT22;9817;50.80926400;5.16316200;2023-07-08T03:02:06;18.90;99.90
19363;DHT22;9817;50.80926400;5.16316200;2023-07-08T03:04:32;18.90;99.90
19363;DHT22;9817;50.80926400;5.16316200;2023-07-08T03:06:58;18.90;99.90
19363;DHT22;9817;50.80926400;5.16316200;2023-07-08T03:09:24;18.90;99.90
19363;DHT22;9817;50.80926400;5.16316200;2023-07-08T03:11:49;19.00;99.90
19363;DHT22;9817;50.80926400;5.16316200;2023-07-08T03:14:15;19.10;99.90
19363;DHT22;9817;50.80926400;5.16316200;2023-07-08T03:16:41;19.10;99.90
19363;DHT22;9817;50.80926400;5.16316200;2023-07-08T03:19:09;19.20;99.90
19363;DHT22;9817;50.80926400;5.16316200;2023-07-08T03:21:35;19.20;99.90
19363;DHT22;9817;50.80926400;5.16316200;2023-07-08T03:24:01;19.20;99.90
19363;DHT22;9817;50.80926400;5.16316200;2023-07-08T03:26:27;19.20;99.90
19363;DHT22;9817;50.80926400;5.16316200;2023-07-08T03:28:52;19.10;99.90
19363;DHT22;9817;50.80926400;5.16316200;2023-07-08T03:31:19;19.20;99.90
19363;DHT22;9817;50.80926400;5.16316200;2023-07-08T03:33:45;19.10;99.90
19363;DHT22;9817;50.80926400;5.16316200;2023-07-08T03:36:16;19.20;99.90
19363;DHT22;9817;50.80926400;5.16316200;2023-07-08T03:38:53;19.20;99.90
19363;DHT22;9817;50.80926400;5.16316200;2023-07-08T03:41:19;19.20;99.90
19363;DHT22;9817;50.80926400;5.16316200;2023-07-08T03:43:44;19.20;99.90
19363;DHT22;9817;50.80926400;5.16316200;2023-07-08T03:46:11;19.10;99.90
19363;DHT22;9817;50.80926400;5.16316200;2023-07-08T03:48:38;19.10;99.90
19363;DHT22;9817;50.80926400;5.16316200;2023-07-08T03:51:06;19.00;99.90
19363;DHT22;9817;50.80926400;5.16316200;2023-07-08T03:53:33;19.00;99.90
19363;DHT22;9817;50.80926400;5.16316200;2023-07-08T03:55:59;19.00;99.90
19363;DHT22;9817;50.80926400;5.16316200;2023-07-08T03:58:24;19.00;99.90
19363;DHT22;9817;50.80926400;5.16316200;2023-07-08T04:00:50;19.00;99.90
19363;DHT22;9817;50.80926400;5.16316200;2023-07-08T04:03:16;18.90;99.90
19363;DHT22;9817;50.80926400;5.16316200;2023-07-08T04:05:41;18.80;99.90
19363;DHT22;9817;50.80926400;5.16316200;2023-07-08T04:08:07;18.80;99.90
19363;DHT22;9817;50.80926400;5.16316200;2023-07-08T04:10:32;18.90;99.90
19363;DHT22;9817;50.80926400;5.16316200;2023-07-08T04:12:58;18.90;99.90
19363;DHT22;9817;50.80926400;5.16316200;2023-07-08T04:15:23;19.00;99.90
19363;DHT22;9817;50.80926400;5.16316200;2023-07-08T04:17:51;18.90;99.90
19363;DHT22;9817;50.80926400;5.16316200;2023-07-08T04:20:18;19.00;99.90
19363;DHT22;9817;50.80926400;5.16316200;2023-07-08T04:22:45;19.00;99.90
19363;DHT22;9817;50.80926400;5.16316200;2023-07-08T04:25:11;18.90;99.90
19363;DHT22;9817;50.80926400;5.16316200;2023-07-08T04:27:38;18.90;99.90
19363;DHT22;9817;50.80926400;5.16316200;2023-07-08T04:30:05;19.00;99.90
19363;DHT22;9817;50.80926400;5.16316200;2023-07-08T04:32:32;19.20;99.90
19363;DHT22;9817;50.80926400;5.16316200;2023-07-08T04:34:57;19.10;99.90
19363;DHT22;9817;50.80926400;5.16316200;2023-07-08T04:37:23;19.10;99.90
19363;DHT22;9817;50.80926400;5.16316200;2023-07-08T04:39:48;19.20;99.90
19363;DHT22;9817;50.80926400;5.16316200;2023-07-08T04:42:14;19.30;99.90
19363;DHT22;9817;50.80926400;5.16316200;2023-07-08T04:44:43;19.40;99.90
19363;DHT22;9817;50.80926400;5.16316200;2023-07-08T04:47:09;19.30;99.90
19363;DHT22;9817;50.80926400;5.16316200;2023-07-08T04:49:37;19.30;99.90
19363;DHT22;9817;50.80926400;5.16316200;2023-07-08T04:52:03;19.40;99.90
19363;DHT22;9817;50.80926400;5.16316200;2023-07-08T04:54:29;19.50;99.90
19363;DHT22;9817;50.80926400;5.16316200;2023-07-08T04:56:54;19.60;99.90
19363;DHT22;9817;50.80926400;5.16316200;2023-07-08T04:59:23;19.60;99.90
19363;DHT22;9817;50.80926400;5.16316200;2023-07-08T05:01:49;19.70;99.90
19363;DHT22;9817;50.80926400;5.16316200;2023-07-08T05:04:16;19.80;99.90
19363;DHT22;9817;50.80926400;5.16316200;2023-07-08T05:06:42;19.90;99.90
19363;DHT22;9817;50.80926400;5.16316200;2023-07-08T05:09:08;19.90;99.90
19363;DHT22;9817;50.80926400;5.16316200;2023-07-08T05:11:35;19.90;99.90
19363;DHT22;9817;50.80926400;5.16316200;2023-07-08T05:14:02;20.00;99.90
19363;DHT22;9817;50.80926400;5.16316200;2023-07-08T05:16:27;20.20;99.90
19363;DHT22;9817;50.80926400;5.16316200;2023-07-08T05:18:53;20.20;99.90
19363;DHT22;9817;50.80926400;5.16316200;2023-07-08T05:21:20;20.30;99.90
19363;DHT22;9817;50.80926400;5.16316200;2023-07-08T05:23:47;20.40;99.90
19363;DHT22;9817;50.80926400;5.16316200;2023-07-08T05:26:14;20.50;99.90
19363;DHT22;9817;50.80926400;5.16316200;2023-07-08T05:28:40;20.60;99.90
19363;DHT22;9817;50.80926400;5.16316200;2023-07-08T05:31:06;20.80;99.90
19363;DHT22;9817;50.80926400;5.16316200;2023-07-08T05:33:32;20.90;99.90
19363;DHT22;9817;50.80926400;5.16316200;2023-07-08T05:35:58;21.00;99.90
19363;DHT22;9817;50.80926400;5.16316200;2023-07-08T05:38:24;21.10;99.90
19363;DHT22;9817;50.80926400;5.16316200;2023-07-08T05:40:53;21.20;99.90
19363;DHT22;9817;50.80926400;5.16316200;2023-07-08T05:43:20;21.30;99.90
19363;DHT22;9817;50.80926400;5.16316200;2023-07-08T05:45:46;21.40;99.90
19363;DHT22;9817;50.80926400;5.16316200;2023-07-08T05:48:11;21.40;99.90
19363;DHT22;9817;50.80926400;5.16316200;2023-07-08T05:50:38;21.70;99.90
19363;DHT22;9817;50.80926400;5.16316200;2023-07-08T05:53:04;21.70;99.90
19363;DHT22;9817;50.80926400;5.16316200;2023-07-08T05:55:34;21.90;99.90
19363;DHT22;9817;50.80926400;5.16316200;2023-07-08T05:57:59;22.10;99.90
19363;DHT22;9817;50.80926400;5.16316200;2023-07-08T06:00:25;22.40;99.90
19363;DHT22;9817;50.80926400;5.16316200;2023-07-08T06:02:51;22.70;99.90
19363;DHT22;9817;50.80926400;5.16316200;2023-07-08T06:05:16;23.30;99.90
19363;DHT22;9817;50.80926400;5.16316200;2023-07-08T06:07:42;24.30;99.90
19363;DHT22;9817;50.80926400;5.16316200;2023-07-08T06:10:08;25.40;99.90
19363;DHT22;9817;50.80926400;5.16316200;2023-07-08T06:12:34;25.60;99.90
19363;DHT22;9817;50.80926400;5.16316200;2023-07-08T06:14:59;25.30;99.90
19363;DHT22;9817;50.80926400;5.16316200;2023-07-08T06:17:25;25.10;99.90
19363;DHT22;9817;50.80926400;5.16316200;2023-07-08T06:19:51;25.50;99.90
19363;DHT22;9817;50.80926400;5.16316200;2023-07-08T06:22:16;26.20;99.90
19363;DHT22;9817;50.80926400;5.16316200;2023-07-08T06:24:42;26.40;99.90
19363;DHT22;9817;50.80926400;5.16316200;2023-07-08T06:27:08;26.20;99.90
19363;DHT22;9817;50.80926400;5.16316200;2023-07-08T06:29:34;26.00;99.90
19363;DHT22;9817;50.80926400;5.16316200;2023-07-08T06:32:00;26.00;99.90
19363;DHT22;9817;50.80926400;5.16316200;2023-07-08T06:34:26;26.30;99.90
19363;DHT22;9817;50.80926400;5.16316200;2023-07-08T06:36:51;27.70;99.90
19363;DHT22;9817;50.80926400;5.16316200;2023-07-08T06:39:18;29.20;99.90
19363;DHT22;9817;50.80926400;5.16316200;2023-07-08T06:41:44;29.50;99.90
19363;DHT22;9817;50.80926400;5.16316200;2023-07-08T06:44:10;29.10;99.90
19363;DHT22;9817;50.80926400;5.16316200;2023-07-08T06:46:36;28.50;99.90
19363;DHT22;9817;50.80926400;5.16316200;2023-07-08T06:49:02;28.00;99.90
19363;DHT22;9817;50.80926400;5.16316200;2023-07-08T06:51:28;27.60;99.90
19363;DHT22;9817;50.80926400;5.16316200;2023-07-08T06:53:53;27.20;99.90
19363;DHT22;9817;50.80926400;5.16316200;2023-07-08T06:56:19;27.00;99.90
19363;DHT22;9817;50.80926400;5.16316200;2023-07-08T06:58:45;26.80;99.90
19363;DHT22;9817;50.80926400;5.16316200;2023-07-08T07:01:11;26.60;99.90
19363;DHT22;9817;50.80926400;5.16316200;2023-07-08T07:03:37;26.50;99.90
19363;DHT22;9817;50.80926400;5.16316200;2023-07-08T07:06:03;26.40;99.90
19363;DHT22;9817;50.80926400;5.16316200;2023-07-08T07:08:28;26.40;99.90
19363;DHT22;9817;50.80926400;5.16316200;2023-07-08T07:10:54;26.30;99.90
19363;DHT22;9817;50.80926400;5.16316200;2023-07-08T07:13:20;26.30;99.90
19363;DHT22;9817;50.80926400;5.16316200;2023-07-08T07:15:48;26.40;99.90
19363;DHT22;9817;50.80926400;5.16316200;2023-07-08T07:18:14;26.40;99.90
19363;DHT22;9817;50.80926400;5.16316200;2023-07-08T07:20:50;26.60;99.90
19363;DHT22;9817;50.80926400;5.16316200;2023-07-08T07:23:16;26.70;99.90
19363;DHT22;9817;50.80926400;5.16316200;2023-07-08T07:25:42;26.60;99.90
19363;DHT22;9817;50.80926400;5.16316200;2023-07-08T07:28:09;26.50;99.90
19363;DHT22;9817;50.80926400;5.16316200;2023-07-08T07:30:35;26.60;99.90
19363;DHT22;9817;50.80926400;5.16316200;2023-07-08T07:33:01;26.80;99.90
19363;DHT22;9817;50.80926400;5.16316200;2023-07-08T07:35:26;27.10;99.90
19363;DHT22;9817;50.80926400;5.16316200;2023-07-08T07:37:52;27.80;99.90
19363;DHT22;9817;50.80926400;5.16316200;2023-07-08T07:40:17;29.50;99.90
19363;DHT22;9817;50.80926400;5.16316200;2023-07-08T07:42:45;31.50;99.90
19363;DHT22;9817;50.80926400;5.16316200;2023-07-08T07:45:12;34.30;94.10
19363;DHT22;9817;50.80926400;5.16316200;2023-07-08T07:47:38;37.10;85.40
19363;DHT22;9817;50.80926400;5.16316200;2023-07-08T07:50:05;39.70;73.60
19363;DHT22;9817;50.80926400;5.16316200;2023-07-08T07:52:31;41.60;63.50
19363;DHT22;9817;50.80926400;5.16316200;2023-07-08T07:54:57;43.30;58.90
19363;DHT22;9817;50.80926400;5.16316200;2023-07-08T07:57:23;44.50;54.30
19363;DHT22;9817;50.80926400;5.16316200;2023-07-08T07:59:49;45.70;52.80
19363;DHT22;9817;50.80926400;5.16316200;2023-07-08T08:02:15;46.70;47.80
19363;DHT22;9817;50.80926400;5.16316200;2023-07-08T08:04:41;47.70;46.70
19363;DHT22;9817;50.80926400;5.16316200;2023-07-08T08:07:07;48.50;46.40
19363;DHT22;9817;50.80926400;5.16316200;2023-07-08T08:09:32;48.70;43.50
19363;DHT22;9817;50.80926400;5.16316200;2023-07-08T08:11:58;48.70;42.80
19363;DHT22;9817;50.80926400;5.16316200;2023-07-08T08:14:24;48.90;44.00
19363;DHT22;9817;50.80926400;5.16316200;2023-07-08T08:16:50;49.10;43.50
19363;DHT22;9817;50.80926400;5.16316200;2023-07-08T08:19:15;49.40;42.50
19363;DHT22;9817;50.80926400;5.16316200;2023-07-08T08:21:41;49.60;41.90
19363;DHT22;9817;50.80926400;5.16316200;2023-07-08T08:24:06;49.30;42.90
19363;DHT22;9817;50.80926400;5.16316200;2023-07-08T08:26:32;49.60;43.10
19363;DHT22;9817;50.80926400;5.16316200;2023-07-08T08:28:58;50.10;41.10
19363;DHT22;9817;50.80926400;5.16316200;2023-07-08T08:31:23;50.50;41.40
19363;DHT22;9817;50.80926400;5.16316200;2023-07-08T08:33:51;50.80;41.20
19363;DHT22;9817;50.80926400;5.16316200;2023-07-08T08:36:17;51.00;41.10
19363;DHT22;9817;50.80926400;5.16316200;2023-07-08T08:38:43;50.80;41.00
19363;DHT22;9817;50.80926400;5.16316200;2023-07-08T08:41:17;51.10;40.20
19363;DHT22;9817;50.80926400;5.16316200;2023-07-08T08:43:44;51.40;40.50
19363;DHT22;9817;50.80926400;5.16316200;2023-07-08T08:46:23;51.60;39.00
19363;DHT22;9817;50.80926400;5.16316200;2023-07-08T08:49:07;51.50;39.40
19363;DHT22;9817;50.80926400;5.16316200;2023-07-08T08:51:33;51.50;39.70
19363;DHT22;9817;50.80926400;5.16316200;2023-07-08T08:53:59;51.20;38.00
19363;DHT22;9817;50.80926400;5.16316200;2023-07-08T08:56:28;50.70;39.10
19363;DHT22;9817;50.80926400;5.16316200;2023-07-08T08:59:17;50.80;38.90
19363;DHT22;9817;50.80926400;5.16316200;2023-07-08T09:01:46;51.50;39.50
19363;DHT22;9817;50.80926400;5.16316200;2023-07-08T09:04:21;51.80;39.20
19363;DHT22;9817;50.80926400;5.16316200;2023-07-08T09:06:48;51.10;38.70
19363;DHT22;9817;50.80926400;5.16316200;2023-07-08T09:09:37;50.80;38.80
19363;DHT22;9817;50.80926400;5.16316200;2023-07-08T09:12:09;51.50;39.70
19363;DHT22;9817;50.80926400;5.16316200;2023-07-08T09:14:37;51.70;39.70
19363;DHT22;9817;50.80926400;5.16316200;2023-07-08T09:20:20;51.80;37.60
19363;DHT22;9817;50.80926400;5.16316200;2023-07-08T09:27:54;51.90;37.50
19363;DHT22;9817;50.80926400;5.16316200;2023-07-08T09:30:22;51.60;39.20
19363;DHT22;9817;50.80926400;5.16316200;2023-07-08T09:32:49;52.00;37.20
19363;DHT22;9817;50.80926400;5.16316200;2023-07-08T09:35:43;51.90;36.80
19363;DHT22;9817;50.80926400;5.16316200;2023-07-08T09:38:09;51.40;37.20
19363;DHT22;9817;50.80926400;5.16316200;2023-07-08T09:40:35;51.60;38.70
19363;DHT22;9817;50.80926400;5.16316200;2023-07-08T09:43:16;51.30;37.70
19363;DHT22;9817;50.80926400;5.16316200;2023-07-08T09:45:48;50.90;38.30
19363;DHT22;9817;50.80926400;5.16316200;2023-07-08T09:48:28;51.00;37.90
19363;DHT22;9817;50.80926400;5.16316200;2023-07-08T09:50:57;51.60;38.60
19363;DHT22;9817;50.80926400;5.16316200;2023-07-08T09:53:23;50.70;38.50
19363;DHT22;9817;50.80926400;5.16316200;2023-07-08T09:55:50;50.90;39.30
19363;DHT22;9817;50.80926400;5.16316200;2023-07-08T09:58:24;51.50;37.60
19363;DHT22;9817;50.80926400;5.16316200;2023-07-08T10:00:55;51.50;37.80
19363;DHT22;9817;50.80926400;5.16316200;2023-07-08T10:03:28;50.60;38.30
19363;DHT22;9817;50.80926400;5.16316200;2023-07-08T10:05:58;50.90;37.80
19363;DHT22;9817;50.80926400;5.16316200;2023-07-08T10:08:31;50.70;37.70
19363;DHT22;9817;50.80926400;5.16316200;2023-07-08T10:11:27;51.10;38.60
19363;DHT22;9817;50.80926400;5.16316200;2023-07-08T10:13:56;51.60;38.10
19363;DHT22;9817;50.80926400;5.16316200;2023-07-08T10:16:31;51.60;38.20
19363;DHT22;9817;50.80926400;5.16316200;2023-07-08T10:18:58;51.30;38.80
19363;DHT22;9817;50.80926400;5.16316200;2023-07-08T10:30:25;49.00;39.10
19363;DHT22;9817;50.80926400;5.16316200;2023-07-08T11:03:09;39.60;49.90
19363;DHT22;9817;50.80926400;5.16316200;2023-07-08T11:07:53;38.70;52.40
19363;DHT22;9817;50.80926400;5.16316200;2023-07-08T11:10:26;38.70;52.50
19363;DHT22;9817;50.80926400;5.16316200;2023-07-08T11:12:59;38.70;49.30
19363;DHT22;9817;50.80926400;5.16316200;2023-07-08T11:15:34;38.60;51.70
19363;DHT22;9817;50.80926400;5.16316200;2023-07-08T11:18:06;38.60;51.90
19363;DHT22;9817;50.80926400;5.16316200;2023-07-08T11:20:40;38.60;52.70
19363;DHT22;9817;50.80926400;5.16316200;2023-07-08T11:23:26;38.40;51.80
19363;DHT22;9817;50.80926400;5.16316200;2023-07-08T11:26:03;38.10;51.50
19363;DHT22;9817;50.80926400;5.16316200;2023-07-08T11:28:30;38.10;52.10
19363;DHT22;9817;50.80926400;5.16316200;2023-07-08T11:30:57;38.10;51.80
19363;DHT22;9817;50.80926400;5.16316200;2023-07-08T11:33:25;38.00;53.40
19363;DHT22;9817;50.80926400;5.16316200;2023-07-08T11:35:53;38.00;54.00
19363;DHT22;9817;50.80926400;5.16316200;2023-07-08T11:38:24;38.00;55.70
19363;DHT22;9817;50.80926400;5.16316200;2023-07-08T11:43:16;37.90;55.00
19363;DHT22;9817;50.80926400;5.16316200;2023-07-08T11:45:43;38.00;53.50
19363;DHT22;9817;50.80926400;5.16316200;2023-07-08T11:48:28;38.10;54.10
19363;DHT22;9817;50.80926400;5.16316200;2023-07-08T11:50:55;38.30;53.80
19363;DHT22;9817;50.80926400;5.16316200;2023-07-08T11:58:31;38.10;53.60
19363;DHT22;9817;50.80926400;5.16316200;2023-07-08T12:03:40;38.20;53.90
19363;DHT22;9817;50.80926400;5.16316200;2023-07-08T12:08:54;38.40;53.90
19363;DHT22;9817;50.80926400;5.16316200;2023-07-08T12:11:30;38.10;54.60
19363;DHT22;9817;50.80926400;5.16316200;2023-07-08T12:13:59;38.00;55.50
19363;DHT22;9817;50.80926400;5.16316200;2023-07-08T12:16:26;37.50;55.90
19363;DHT22;9817;50.80926400;5.16316200;2023-07-08T12:18:53;37.20;54.20
19363;DHT22;9817;50.80926400;5.16316200;2023-07-08T12:21:22;37.30;56.20
19363;DHT22;9817;50.80926400;5.16316200;2023-07-08T12:23:48;37.50;57.90
19363;DHT22;9817;50.80926400;5.16316200;2023-07-08T12:26:14;37.50;55.10
19363;DHT22;9817;50.80926400;5.16316200;2023-07-08T12:28:40;37.40;55.50
19363;DHT22;9817;50.80926400;5.16316200;2023-07-08T12:31:17;37.30;55.00
19363;DHT22;9817;50.80926400;5.16316200;2023-07-08T12:33:44;37.40;56.80
19363;DHT22;9817;50.80926400;5.16316200;2023-07-08T12:36:13;37.40;56.70
19363;DHT22;9817;50.80926400;5.16316200;2023-07-08T12:38:42;37.50;57.50
19363;DHT22;9817;50.80926400;5.16316200;2023-07-08T12:43:37;37.20;57.00
19363;DHT22;9817;50.80926400;5.16316200;2023-07-08T12:46:04;36.80;59.20
19363;DHT22;9817;50.80926400;5.16316200;2023-07-08T12:48:37;36.70;56.50
19363;DHT22;9817;50.80926400;5.16316200;2023-07-08T12:51:04;36.60;56.90
19363;DHT22;9817;50.80926400;5.16316200;2023-07-08T12:53:30;36.50;59.20
19363;DHT22;9817;50.80926400;5.16316200;2023-07-08T12:55:58;36.40;60.00
19363;DHT22;9817;50.80926400;5.16316200;2023-07-08T12:58:27;36.00;60.00
19363;DHT22;9817;50.80926400;5.16316200;2023-07-08T13:00:58;35.90;62.10
19363;DHT22;9817;50.80926400;5.16316200;2023-07-08T13:03:27;35.60;62.10
19363;DHT22;9817;50.80926400;5.16316200;2023-07-08T13:05:55;35.60;64.40
19363;DHT22;9817;50.80926400;5.16316200;2023-07-08T13:08:23;35.30;64.70
19363;DHT22;9817;50.80926400;5.16316200;2023-07-08T13:10:52;35.20;66.60
19363;DHT22;9817;50.80926400;5.16316200;2023-07-08T13:13:26;35.00;68.20
19363;DHT22;9817;50.80926400;5.16316200;2023-07-08T13:15:53;34.80;68.90
19363;DHT22;9817;50.80926400;5.16316200;2023-07-08T13:18:35;34.70;69.40
19363;DHT22;9817;50.80926400;5.16316200;2023-07-08T13:21:03;34.50;70.20
19363;DHT22;9817;50.80926400;5.16316200;2023-07-08T13:23:29;34.30;72.10
19363;DHT22;9817;50.80926400;5.16316200;2023-07-08T13:25:56;34.20;70.50
19363;DHT22;9817;50.80926400;5.16316200;2023-07-08T13:28:30;34.00;71.90
19363;DHT22;9817;50.80926400;5.16316200;2023-07-08T13:31:02;34.00;73.20
19363;DHT22;9817;50.80926400;5.16316200;2023-07-08T13:33:32;33.40;71.10
19363;DHT22;9817;50.80926400;5.16316200;2023-07-08T13:36:02;32.80;71.30
19363;DHT22;9817;50.80926400;5.16316200;2023-07-08T13:38:33;32.30;71.80
19363;DHT22;9817;50.80926400;5.16316200;2023-07-08T13:41:02;31.50;72.90
19363;DHT22;9817;50.80926400;5.16316200;2023-07-08T13:43:31;31.00;74.90
19363;DHT22;9817;50.80926400;5.16316200;2023-07-08T13:45:57;30.80;77.00
19363;DHT22;9817;50.80926400;5.16316200;2023-07-08T13:48:36;30.80;78.80
19363;DHT22;9817;50.80926400;5.16316200;2023-07-08T13:51:22;30.70;81.90
19363;DHT22;9817;50.80926400;5.16316200;2023-07-08T13:53:54;30.50;84.70
19363;DHT22;9817;50.80926400;5.16316200;2023-07-08T13:56:29;30.40;86.00
19363;DHT22;9817;50.80926400;5.16316200;2023-07-08T13:59:03;30.50;90.40
19363;DHT22;9817;50.80926400;5.16316200;2023-07-08T14:01:31;30.50;93.60
19363;DHT22;9817;50.80926400;5.16316200;2023-07-08T14:03:57;30.40;99.10
19363;DHT22;9817;50.80926400;5.16316200;2023-07-08T14:06:25;30.80;99.90
19363;DHT22;9817;50.80926400;5.16316200;2023-07-08T14:08:56;31.30;99.90
19363;DHT22;9817;50.80926400;5.16316200;2023-07-08T14:11:22;31.80;99.90
19363;DHT22;9817;50.80926400;5.16316200;2023-07-08T14:13:48;32.20;99.90
19363;DHT22;9817;50.80926400;5.16316200;2023-07-08T14:16:34;32.60;99.90
19363;DHT22;9817;50.80926400;5.16316200;2023-07-08T14:19:02;32.80;99.90
19363;DHT22;9817;50.80926400;5.16316200;2023-07-08T14:21:30;32.80;99.90
19363;DHT22;9817;50.80926400;5.16316200;2023-07-08T14:23:56;33.00;99.90
19363;DHT22;9817;50.80926400;5.16316200;2023-07-08T14:26:21;33.20;99.90
19363;DHT22;9817;50.80926400;5.16316200;2023-07-08T14:28:47;33.30;99.90
19363;DHT22;9817;50.80926400;5.16316200;2023-07-08T14:31:17;33.60;99.90
19363;DHT22;9817;50.80926400;5.16316200;2023-07-08T14:33:44;33.70;99.90
19363;DHT22;9817;50.80926400;5.16316200;2023-07-08T14:36:11;33.90;99.90
19363;DHT22;9817;50.80926400;5.16316200;2023-07-08T14:38:37;34.10;99.90
19363;DHT22;9817;50.80926400;5.16316200;2023-07-08T14:41:03;34.20;96.00
19363;DHT22;9817;50.80926400;5.16316200;2023-07-08T14:43:30;34.30;95.30
19363;DHT22;9817;50.80926400;5.16316200;2023-07-08T14:45:58;34.40;96.20
19363;DHT22;9817;50.80926400;5.16316200;2023-07-08T14:48:24;34.80;93.40
19363;DHT22;9817;50.80926400;5.16316200;2023-07-08T14:50:50;34.80;93.50